sensor_id;sensor_type;location;lat;lon;timestamp;temperature;humidity
3940;DHT22;1984;48.312;9.244;2022-10-31T00:01:55;8.10;99.90
3940;DHT22;1984;48.312;9.244;2022-10-31T00:04:21;8.10;99.90
3940;DHT22;1984;48.312;9.244;2022-10-31T00:06:46;8.10;99.90
3940;DHT22;1984;48.312;9.244;2022-10-31T00:09:12;8.10;99.90
3940;DHT22;1984;48.312;9.244;2022-10-31T00:11:37;8.10;99.90
3940;DHT22;1984;48.312;9.244;2022-10-31T00:14:03;8.10;99.90
3940;DHT22;1984;48.312;9.244;2022-10-31T00:16:29;8.10;99.90
3940;DHT22;1984;48.312;9.244;2022-10-31T00:18:57;8.20;99.90
3940;DHT22;1984;48.312;9.244;2022-10-31T00:21:24;8.20;99.90
3940;DHT22;1984;48.312;9.244;2022-10-31T00:23:49;8.20;99.90
3940;DHT22;1984;48.312;9.244;2022-10-31T00:26:15;8.30;99.90
3940;DHT22;1984;48.312;9.244;2022-10-31T00:28:41;8.30;99.90
3940;DHT22;1984;48.312;9.244;2022-10-31T00:31:09;8.30;99.90
3940;DHT22;1984;48.312;9.244;2022-10-31T00:33:36;8.30;99.90
3940;DHT22;1984;48.312;9.244;2022-10-31T00:36:04;8.20;99.90
3940;DHT22;1984;48.312;9.244;2022-10-31T00:38:30;8.20;99.90
3940;DHT22;1984;48.312;9.244;2022-10-31T00:40:56;8.20;99.90
3940;DHT22;1984;48.312;9.244;2022-10-31T00:43:21;8.20;99.90
3940;DHT22;1984;48.312;9.244;2022-10-31T00:45:47;8.10;99.90
3940;DHT22;1984;48.312;9.244;2022-10-31T00:48:12;8.10;99.90
3940;DHT22;1984;48.312;9.244;2022-10-31T00:50:38;8.10;99.90
3940;DHT22;1984;48.312;9.244;2022-10-31T00:53:04;8.10;99.90
3940;DHT22;1984;48.312;9.244;2022-10-31T00:55:30;8.00;99.90
3940;DHT22;1984;48.312;9.244;2022-10-31T00:57:56;7.90;99.90
3940;DHT22;1984;48.312;9.244;2022-10-31T01:00:22;7.80;99.90
3940;DHT22;1984;48.312;9.244;2022-10-31T01:02:47;7.70;99.90
3940;DHT22;1984;48.312;9.244;2022-10-31T01:05:13;7.60;99.90
3940;DHT22;1984;48.312;9.244;2022-10-31T01:07:40;7.60;99.90
3940;DHT22;1984;48.312;9.244;2022-10-31T01:10:06;7.60;99.90
3940;DHT22;1984;48.312;9.244;2022-10-31T01:12:45;7.60;99.90
3940;DHT22;1984;48.312;9.244;2022-10-31T01:15:12;7.70;99.90
3940;DHT22;1984;48.312;9.244;2022-10-31T01:17:39;7.60;99.90
3940;DHT22;1984;48.312;9.244;2022-10-31T01:20:05;7.60;99.90
3940;DHT22;1984;48.312;9.244;2022-10-31T01:22:31;7.50;99.90
3940;DHT22;1984;48.312;9.244;2022-10-31T01:24:57;7.50;99.90
3940;DHT22;1984;48.312;9.244;2022-10-31T01:27:23;7.50;99.90
3940;DHT22;1984;48.312;9.244;2022-10-31T01:29:48;7.40;99.90
3940;DHT22;1984;48.312;9.244;2022-10-31T01:32:14;7.50;99.90
3940;DHT22;1984;48.312;9.244;2022-10-31T01:34:39;7.40;99.90
3940;DHT22;1984;48.312;9.244;2022-10-31T01:37:05;7.50;99.90
3940;DHT22;1984;48.312;9.244;2022-10-31T01:39:30;7.50;99.90
3940;DHT22;1984;48.312;9.244;2022-10-31T01:41:56;7.60;99.90
3940;DHT22;1984;48.312;9.244;2022-10-31T01:47:15;7.50;99.90
3940;DHT22;1984;48.312;9.244;2022-10-31T01:49:54;7.50;99.90
3940;DHT22;1984;48.312;9.244;2022-10-31T01:52:23;7.50;99.90
3940;DHT22;1984;48.312;9.244;2022-10-31T01:55:16;7.50;99.90
3940;DHT22;1984;48.312;9.244;2022-10-31T01:57:41;7.50;99.90
3940;DHT22;1984;48.312;9.244;2022-10-31T02:00:09;7.60;99.90
3940;DHT22;1984;48.312;9.244;2022-10-31T02:02:35;7.50;99.90
3940;DHT22;1984;48.312;9.244;2022-10-31T02:05:04;7.50;99.90
3940;DHT22;1984;48.312;9.244;2022-10-31T02:07:36;7.50;99.90
3940;DHT22;1984;48.312;9.244;2022-10-31T02:10:04;7.50;99.90
3940;DHT22;1984;48.312;9.244;2022-10-31T02:12:31;7.50;99.90
3940;DHT22;1984;48.312;9.244;2022-10-31T02:14:58;7.60;99.90
3940;DHT22;1984;48.312;9.244;2022-10-31T02:17:25;7.60;99.90
3940;DHT22;1984;48.312;9.244;2022-10-31T02:20:10;7.60;99.90
3940;DHT22;1984;48.312;9.244;2022-10-31T02:25:40;7.70;99.90
3940;DHT22;1984;48.312;9.244;2022-10-31T02:33:59;7.40;99.90
3940;DHT22;1984;48.312;9.244;2022-10-31T02:41:58;7.30;99.90
3940;DHT22;1984;48.312;9.244;2022-10-31T02:47:18;7.30;99.90
3940;DHT22;1984;48.312;9.244;2022-10-31T02:52:29;7.30;99.90
3940;DHT22;1984;48.312;9.244;2022-10-31T02:54:55;7.20;99.90
3940;DHT22;1984;48.312;9.244;2022-10-31T02:57:31;7.20;99.90
3940;DHT22;1984;48.312;9.244;2022-10-31T03:00:03;7.20;99.90
3940;DHT22;1984;48.312;9.244;2022-10-31T03:08:06;7.10;99.90
3940;DHT22;1984;48.312;9.244;2022-10-31T03:10:45;7.10;99.90
3940;DHT22;1984;48.312;9.244;2022-10-31T03:15:50;7.10;99.90
3940;DHT22;1984;48.312;9.244;2022-10-31T03:18:29;7.10;99.90
3940;DHT22;1984;48.312;9.244;2022-10-31T03:21:25;7.00;99.90
3940;DHT22;1984;48.312;9.244;2022-10-31T03:23:52;7.00;99.90
3940;DHT22;1984;48.312;9.244;2022-10-31T03:26:21;7.00;99.90
3940;DHT22;1984;48.312;9.244;2022-10-31T03:28:54;7.00;99.90
3940;DHT22;1984;48.312;9.244;2022-10-31T03:31:25;7.00;99.90
3940;DHT22;1984;48.312;9.244;2022-10-31T03:33:52;7.00;99.90
3940;DHT22;1984;48.312;9.244;2022-10-31T03:36:18;7.00;99.90
3940;DHT22;1984;48.312;9.244;2022-10-31T03:38:45;7.00;99.90
3940;DHT22;1984;48.312;9.244;2022-10-31T03:41:16;7.00;99.90
3940;DHT22;1984;48.312;9.244;2022-10-31T03:43:46;7.00;99.90
3940;DHT22;1984;48.312;9.244;2022-10-31T03:46:13;6.90;99.90
3940;DHT22;1984;48.312;9.244;2022-10-31T03:48:39;6.90;99.90
3940;DHT22;1984;48.312;9.244;2022-10-31T03:51:17;6.90;99.90
3940;DHT22;1984;48.312;9.244;2022-10-31T03:53:52;6.80;99.90
3940;DHT22;1984;48.312;9.244;2022-10-31T03:56:37;6.80;99.90
3940;DHT22;1984;48.312;9.244;2022-10-31T03:59:13;6.80;99.90
3940;DHT22;1984;48.312;9.244;2022-10-31T04:01:44;6.80;99.90
3940;DHT22;1984;48.312;9.244;2022-10-31T04:04:11;6.90;99.90
3940;DHT22;1984;48.312;9.244;2022-10-31T04:06:39;6.90;99.90
3940;DHT22;1984;48.312;9.244;2022-10-31T04:09:08;6.90;99.90
3940;DHT22;1984;48.312;9.244;2022-10-31T04:11:37;6.90;99.90
3940;DHT22;1984;48.312;9.244;2022-10-31T04:14:07;6.90;99.90
3940;DHT22;1984;48.312;9.244;2022-10-31T04:16:33;6.80;99.90
3940;DHT22;1984;48.312;9.244;2022-10-31T04:18:58;6.70;99.90
3940;DHT22;1984;48.312;9.244;2022-10-31T04:21:28;6.70;99.90
3940;DHT22;1984;48.312;9.244;2022-10-31T04:23:55;6.70;99.90
3940;DHT22;1984;48.312;9.244;2022-10-31T04:26:20;6.70;99.90
3940;DHT22;1984;48.312;9.244;2022-10-31T04:28:46;6.70;99.90
3940;DHT22;1984;48.312;9.244;2022-10-31T04:31:12;6.60;99.90
3940;DHT22;1984;48.312;9.244;2022-10-31T04:33:38;6.60;99.90
3940;DHT22;1984;48.312;9.244;2022-10-31T04:36:04;6.50;99.90
3940;DHT22;1984;48.312;9.244;2022-10-31T04:38:30;6.50;99.90
3940;DHT22;1984;48.312;9.244;2022-10-31T04:40:55;6.50;99.90
3940;DHT22;1984;48.312;9.244;2022-10-31T04:43:21;6.50;99.90
3940;DHT22;1984;48.312;9.244;2022-10-31T04:45:46;6.50;99.90
3940;DHT22;1984;48.312;9.244;2022-10-31T04:48:12;6.50;99.90
3940;DHT22;1984;48.312;9.244;2022-10-31T04:50:38;6.50;99.90
3940;DHT22;1984;48.312;9.244;2022-10-31T04:53:03;6.50;99.90
3940;DHT22;1984;48.312;9.244;2022-10-31T04:55:29;6.40;99.90
3940;DHT22;1984;48.312;9.244;2022-10-31T04:57:54;6.40;99.90
3940;DHT22;1984;48.312;9.244;2022-10-31T05:00:21;6.40;99.90
3940;DHT22;1984;48.312;9.244;2022-10-31T05:02:52;6.40;99.90
3940;DHT22;1984;48.312;9.244;2022-10-31T05:05:20;6.40;99.90
3940;DHT22;1984;48.312;9.244;2022-10-31T05:07:47;6.40;99.90
3940;DHT22;1984;48.312;9.244;2022-10-31T05:10:16;6.40;99.90
3940;DHT22;1984;48.312;9.244;2022-10-31T05:12:51;6.40;99.90
3940;DHT22;1984;48.312;9.244;2022-10-31T05:15:18;6.30;99.90
3940;DHT22;1984;48.312;9.244;2022-10-31T05:17:44;6.40;99.90
3940;DHT22;1984;48.312;9.244;2022-10-31T05:20:12;6.40;99.90
3940;DHT22;1984;48.312;9.244;2022-10-31T05:22:43;6.40;99.90
3940;DHT22;1984;48.312;9.244;2022-10-31T05:25:09;6.40;99.90
3940;DHT22;1984;48.312;9.244;2022-10-31T05:27:34;6.50;99.90
3940;DHT22;1984;48.312;9.244;2022-10-31T05:30:00;6.30;99.90
3940;DHT22;1984;48.312;9.244;2022-10-31T05:32:25;6.20;99.90
3940;DHT22;1984;48.312;9.244;2022-10-31T05:34:51;6.20;99.90
3940;DHT22;1984;48.312;9.244;2022-10-31T05:37:16;6.20;99.90
3940;DHT22;1984;48.312;9.244;2022-10-31T05:39:41;6.20;99.90
3940;DHT22;1984;48.312;9.244;2022-10-31T05:42:07;6.20;99.90
3940;DHT22;1984;48.312;9.244;2022-10-31T05:44:32;6.30;99.90
3940;DHT22;1984;48.312;9.244;2022-10-31T05:46:58;6.30;99.90
3940;DHT22;1984;48.312;9.244;2022-10-31T05:49:23;6.30;99.90
3940;DHT22;1984;48.312;9.244;2022-10-31T05:51:49;6.30;99.90
3940;DHT22;1984;48.312;9.244;2022-10-31T05:54:15;6.20;99.90
3940;DHT22;1984;48.312;9.244;2022-10-31T05:56:40;6.10;99.90
3940;DHT22;1984;48.312;9.244;2022-10-31T05:59:06;6.00;99.90
3940;DHT22;1984;48.312;9.244;2022-10-31T06:01:31;6.00;99.90
3940;DHT22;1984;48.312;9.244;2022-10-31T06:03:56;6.00;99.90
3940;DHT22;1984;48.312;9.244;2022-10-31T06:06:22;6.00;99.90
3940;DHT22;1984;48.312;9.244;2022-10-31T06:08:47;5.90;99.90
3940;DHT22;1984;48.312;9.244;2022-10-31T06:11:13;5.90;99.90
3940;DHT22;1984;48.312;9.244;2022-10-31T06:13:39;5.90;99.90
3940;DHT22;1984;48.312;9.244;2022-10-31T06:16:04;5.90;99.90
3940;DHT22;1984;48.312;9.244;2022-10-31T06:18:30;6.00;99.90
3940;DHT22;1984;48.312;9.244;2022-10-31T06:20:55;6.00;99.90
3940;DHT22;1984;48.312;9.244;2022-10-31T06:23:21;6.00;99.90
3940;DHT22;1984;48.312;9.244;2022-10-31T06:25:50;6.10;99.90
3940;DHT22;1984;48.312;9.244;2022-10-31T06:28:16;6.20;99.90
3940;DHT22;1984;48.312;9.244;2022-10-31T06:30:41;6.30;99.90
3940;DHT22;1984;48.312;9.244;2022-10-31T06:33:07;6.30;99.90
3940;DHT22;1984;48.312;9.244;2022-10-31T06:35:32;6.40;99.90
3940;DHT22;1984;48.312;9.244;2022-10-31T06:37:58;6.50;99.90
3940;DHT22;1984;48.312;9.244;2022-10-31T06:40:24;6.60;99.90
3940;DHT22;1984;48.312;9.244;2022-10-31T06:43:00;6.70;99.90
3940;DHT22;1984;48.312;9.244;2022-10-31T06:45:26;6.70;99.90
3940;DHT22;1984;48.312;9.244;2022-10-31T06:47:53;6.80;99.90
3940;DHT22;1984;48.312;9.244;2022-10-31T06:50:19;6.90;99.90
3940;DHT22;1984;48.312;9.244;2022-10-31T06:52:50;7.00;99.90
3940;DHT22;1984;48.312;9.244;2022-10-31T06:55:16;7.10;99.90
3940;DHT22;1984;48.312;9.244;2022-10-31T06:57:42;7.20;99.90
3940;DHT22;1984;48.312;9.244;2022-10-31T07:00:08;7.20;99.90
3940;DHT22;1984;48.312;9.244;2022-10-31T07:02:33;7.30;99.90
3940;DHT22;1984;48.312;9.244;2022-10-31T07:04:59;7.30;99.90
3940;DHT22;1984;48.312;9.244;2022-10-31T07:07:24;7.40;99.90
3940;DHT22;1984;48.312;9.244;2022-10-31T07:09:50;7.60;99.90
3940;DHT22;1984;48.312;9.244;2022-10-31T07:12:15;7.70;99.90
3940;DHT22;1984;48.312;9.244;2022-10-31T07:14:41;7.90;99.90
3940;DHT22;1984;48.312;9.244;2022-10-31T07:17:07;8.30;99.90
3940;DHT22;1984;48.312;9.244;2022-10-31T07:19:33;8.70;99.90
3940;DHT22;1984;48.312;9.244;2022-10-31T07:21:58;9.00;99.90
3940;DHT22;1984;48.312;9.244;2022-10-31T07:24:24;9.60;99.90
3940;DHT22;1984;48.312;9.244;2022-10-31T07:26:49;10.00;99.90
3940;DHT22;1984;48.312;9.244;2022-10-31T07:29:15;10.70;99.90
3940;DHT22;1984;48.312;9.244;2022-10-31T07:31:40;11.40;99.90
3940;DHT22;1984;48.312;9.244;2022-10-31T07:34:06;12.10;99.90
3940;DHT22;1984;48.312;9.244;2022-10-31T07:36:31;12.60;99.90
3940;DHT22;1984;48.312;9.244;2022-10-31T07:38:57;13.10;99.90
3940;DHT22;1984;48.312;9.244;2022-10-31T07:41:24;13.50;99.90
3940;DHT22;1984;48.312;9.244;2022-10-31T07:43:49;13.70;99.90
3940;DHT22;1984;48.312;9.244;2022-10-31T07:46:15;13.70;99.90
3940;DHT22;1984;48.312;9.244;2022-10-31T07:48:40;13.60;99.90
3940;DHT22;1984;48.312;9.244;2022-10-31T07:51:06;13.70;99.90
3940;DHT22;1984;48.312;9.244;2022-10-31T07:53:32;13.90;99.90
3940;DHT22;1984;48.312;9.244;2022-10-31T07:55:57;14.10;99.90
3940;DHT22;1984;48.312;9.244;2022-10-31T07:58:23;14.40;99.90
3940;DHT22;1984;48.312;9.244;2022-10-31T08:00:49;14.50;99.90
3940;DHT22;1984;48.312;9.244;2022-10-31T08:03:18;14.70;99.90
3940;DHT22;1984;48.312;9.244;2022-10-31T08:05:44;14.70;99.90
3940;DHT22;1984;48.312;9.244;2022-10-31T08:08:12;14.90;99.90
3940;DHT22;1984;48.312;9.244;2022-10-31T08:10:37;15.10;99.90
3940;DHT22;1984;48.312;9.244;2022-10-31T08:13:13;15.20;99.90
3940;DHT22;1984;48.312;9.244;2022-10-31T08:15:39;15.30;99.90
3940;DHT22;1984;48.312;9.244;2022-10-31T08:18:13;15.50;99.90
3940;DHT22;1984;48.312;9.244;2022-10-31T08:20:40;15.80;99.90
3940;DHT22;1984;48.312;9.244;2022-10-31T08:23:05;16.20;99.90
3940;DHT22;1984;48.312;9.244;2022-10-31T08:25:33;16.60;99.90
3940;DHT22;1984;48.312;9.244;2022-10-31T08:27:59;17.00;99.90
3940;DHT22;1984;48.312;9.244;2022-10-31T08:30:26;17.00;99.90
3940;DHT22;1984;48.312;9.244;2022-10-31T08:33:04;16.90;99.90
3940;DHT22;1984;48.312;9.244;2022-10-31T08:35:31;17.00;99.90
3940;DHT22;1984;48.312;9.244;2022-10-31T08:37:57;17.10;99.90
3940;DHT22;1984;48.312;9.244;2022-10-31T08:40:24;17.30;99.90
3940;DHT22;1984;48.312;9.244;2022-10-31T08:43:14;17.60;99.90
3940;DHT22;1984;48.312;9.244;2022-10-31T08:45:41;17.60;99.90
3940;DHT22;1984;48.312;9.244;2022-10-31T08:48:13;17.40;99.90
3940;DHT22;1984;48.312;9.244;2022-10-31T08:50:39;17.20;99.90
3940;DHT22;1984;48.312;9.244;2022-10-31T08:53:08;17.00;99.90
3940;DHT22;1984;48.312;9.244;2022-10-31T08:55:35;17.10;99.90
3940;DHT22;1984;48.312;9.244;2022-10-31T08:58:02;17.10;99.90
3940;DHT22;1984;48.312;9.244;2022-10-31T09:00:27;17.30;99.90
3940;DHT22;1984;48.312;9.244;2022-10-31T09:03:00;17.50;99.90
3940;DHT22;1984;48.312;9.244;2022-10-31T09:05:27;17.40;99.90
3940;DHT22;1984;48.312;9.244;2022-10-31T09:08:00;17.30;99.90
3940;DHT22;1984;48.312;9.244;2022-10-31T09:10:27;17.00;99.90
3940;DHT22;1984;48.312;9.244;2022-10-31T09:13:01;16.80;99.90
3940;DHT22;1984;48.312;9.244;2022-10-31T09:15:27;16.70;99.90
3940;DHT22;1984;48.312;9.244;2022-10-31T09:17:54;16.80;99.90
3940;DHT22;1984;48.312;9.244;2022-10-31T09:20:20;16.80;99.90
3940;DHT22;1984;48.312;9.244;2022-10-31T09:22:46;17.00;99.90
3940;DHT22;1984;48.312;9.244;2022-10-31T09:25:11;17.30;99.90
3940;DHT22;1984;48.312;9.244;2022-10-31T09:27:37;17.50;99.90
3940;DHT22;1984;48.312;9.244;2022-10-31T09:30:04;17.80;99.90
3940;DHT22;1984;48.312;9.244;2022-10-31T09:32:29;18.00;99.90
3940;DHT22;1984;48.312;9.244;2022-10-31T09:34:55;18.20;99.90
3940;DHT22;1984;48.312;9.244;2022-10-31T09:37:20;18.60;99.90
3940;DHT22;1984;48.312;9.244;2022-10-31T09:39:46;18.70;99.90
3940;DHT22;1984;48.312;9.244;2022-10-31T09:42:38;18.70;99.90
3940;DHT22;1984;48.312;9.244;2022-10-31T09:45:26;18.80;99.90
3940;DHT22;1984;48.312;9.244;2022-10-31T09:50:55;18.70;99.90
3940;DHT22;1984;48.312;9.244;2022-10-31T09:56:20;18.80;99.90
3940;DHT22;1984;48.312;9.244;2022-10-31T09:58:58;19.00;99.90
3940;DHT22;1984;48.312;9.244;2022-10-31T10:06:49;19.80;99.90
3940;DHT22;1984;48.312;9.244;2022-10-31T10:09:16;20.00;99.90
3940;DHT22;1984;48.312;9.244;2022-10-31T10:14:42;20.40;99.90
3940;DHT22;1984;48.312;9.244;2022-10-31T10:25:37;22.10;99.90
3940;DHT22;1984;48.312;9.244;2022-10-31T10:30:42;23.10;99.90
3940;DHT22;1984;48.312;9.244;2022-10-31T10:33:20;23.60;99.90
3940;DHT22;1984;48.312;9.244;2022-10-31T10:35:52;24.00;99.90
3940;DHT22;1984;48.312;9.244;2022-10-31T10:40:49;24.50;99.90
3940;DHT22;1984;48.312;9.244;2022-10-31T10:43:36;24.90;99.90
3940;DHT22;1984;48.312;9.244;2022-10-31T10:46:18;24.90;99.90
3940;DHT22;1984;48.312;9.244;2022-10-31T10:49:18;24.70;99.90
3940;DHT22;1984;48.312;9.244;2022-10-31T10:51:57;24.60;99.90
3940;DHT22;1984;48.312;9.244;2022-10-31T10:57:21;24.30;99.90
3940;DHT22;1984;48.312;9.244;2022-10-31T10:59:48;24.20;99.90
3940;DHT22;1984;48.312;9.244;2022-10-31T11:02:26;24.20;99.90
3940;DHT22;1984;48.312;9.244;2022-10-31T11:04:54;24.10;99.90
3940;DHT22;1984;48.312;9.244;2022-10-31T11:07:21;23.90;99.90
3940;DHT22;1984;48.312;9.244;2022-10-31T11:09:46;23.70;99.90
3940;DHT22;1984;48.312;9.244;2022-10-31T11:12:35;23.70;99.90
3940;DHT22;1984;48.312;9.244;2022-10-31T11:15:18;23.80;99.90
3940;DHT22;1984;48.312;9.244;2022-10-31T11:17:49;23.80;99.90
3940;DHT22;1984;48.312;9.244;2022-10-31T11:22:42;23.60;99.90
3940;DHT22;1984;48.312;9.244;2022-10-31T11:25:23;23.30;99.90
3940;DHT22;1984;48.312;9.244;2022-10-31T11:28:00;23.20;99.90
3940;DHT22;1984;48.312;9.244;2022-10-31T11:30:26;23.30;99.90
3940;DHT22;1984;48.312;9.244;2022-10-31T11:32:51;23.30;99.90
3940;DHT22;1984;48.312;9.244;2022-10-31T11:35:19;23.40;99.90
3940;DHT22;1984;48.312;9.244;2022-10-31T11:37:48;23.50;99.90
3940;DHT22;1984;48.312;9.244;2022-10-31T11:40:19;23.50;99.90
3940;DHT22;1984;48.312;9.244;2022-10-31T11:42:46;23.40;99.90
3940;DHT22;1984;48.312;9.244;2022-10-31T11:45:17;23.10;99.90
3940;DHT22;1984;48.312;9.244;2022-10-31T11:47:52;22.70;99.90
3940;DHT22;1984;48.312;9.244;2022-10-31T11:52:48;22.40;99.90
3940;DHT22;1984;48.312;9.244;2022-10-31T11:57:55;22.40;99.90
3940;DHT22;1984;48.312;9.244;2022-10-31T12:05:45;22.10;99.90
3940;DHT22;1984;48.312;9.244;2022-10-31T12:08:13;21.80;99.90
3940;DHT22;1984;48.312;9.244;2022-10-31T12:13:37;21.00;99.90
3940;DHT22;1984;48.312;9.244;2022-10-31T12:16:28;20.70;99.90
3940;DHT22;1984;48.312;9.244;2022-10-31T12:29:57;20.00;99.90
3940;DHT22;1984;48.312;9.244;2022-10-31T12:35:23;19.70;99.90
3940;DHT22;1984;48.312;9.244;2022-10-31T12:45:56;19.70;99.90
3940;DHT22;1984;48.312;9.244;2022-10-31T12:51:37;19.80;99.90
3940;DHT22;1984;48.312;9.244;2022-10-31T12:54:13;19.80;99.90
3940;DHT22;1984;48.312;9.244;2022-10-31T13:04:54;19.80;99.90
3940;DHT22;1984;48.312;9.244;2022-10-31T13:07:36;19.80;99.90
3940;DHT22;1984;48.312;9.244;2022-10-31T13:12:42;19.70;99.90
3940;DHT22;1984;48.312;9.244;2022-10-31T13:15:19;19.60;99.90
3940;DHT22;1984;48.312;9.244;2022-10-31T13:17:52;19.50;99.90
3940;DHT22;1984;48.312;9.244;2022-10-31T13:20:34;19.50;99.90
3940;DHT22;1984;48.312;9.244;2022-10-31T13:23:29;19.50;99.90
3940;DHT22;1984;48.312;9.244;2022-10-31T13:25:56;19.60;99.90
3940;DHT22;1984;48.312;9.244;2022-10-31T13:28:46;19.60;99.90
3940;DHT22;1984;48.312;9.244;2022-10-31T13:31:12;19.70;99.90
3940;DHT22;1984;48.312;9.244;2022-10-31T13:33:52;19.90;99.90
3940;DHT22;1984;48.312;9.244;2022-10-31T13:36:40;20.00;99.90
3940;DHT22;1984;48.312;9.244;2022-10-31T13:39:31;20.20;99.90
3940;DHT22;1984;48.312;9.244;2022-10-31T13:44:54;20.70;99.90
3940;DHT22;1984;48.312;9.244;2022-10-31T13:47:23;21.00;99.90
3940;DHT22;1984;48.312;9.244;2022-10-31T13:49:49;21.10;99.90
3940;DHT22;1984;48.312;9.244;2022-10-31T13:52:25;21.20;99.10
3940;DHT22;1984;48.312;9.244;2022-10-31T13:54:53;21.10;96.50
3940;DHT22;1984;48.312;9.244;2022-10-31T13:57:42;20.90;96.00
3940;DHT22;1984;48.312;9.244;2022-10-31T14:02:52;20.30;96.50
3940;DHT22;1984;48.312;9.244;2022-10-31T14:05:32;20.10;96.40
3940;DHT22;1984;48.312;9.244;2022-10-31T14:08:02;20.00;96.60
3940;DHT22;1984;48.312;9.244;2022-10-31T14:10:37;20.00;96.60
3940;DHT22;1984;48.312;9.244;2022-10-31T14:15:43;19.90;96.30
3940;DHT22;1984;48.312;9.244;2022-10-31T14:18:28;19.90;96.60
3940;DHT22;1984;48.312;9.244;2022-10-31T14:20:55;19.80;96.70
3940;DHT22;1984;48.312;9.244;2022-10-31T14:23:35;19.50;97.30
3940;DHT22;1984;48.312;9.244;2022-10-31T14:34:36;19.20;97.80
3940;DHT22;1984;48.312;9.244;2022-10-31T14:42:56;19.20;98.30
3940;DHT22;1984;48.312;9.244;2022-10-31T14:51:02;19.10;99.30
3940;DHT22;1984;48.312;9.244;2022-10-31T14:53:50;19.10;99.70
3940;DHT22;1984;48.312;9.244;2022-10-31T14:56:22;19.10;99.90
3940;DHT22;1984;48.312;9.244;2022-10-31T14:58:49;19.10;99.90
3940;DHT22;1984;48.312;9.244;2022-10-31T15:01:31;19.10;99.90
3940;DHT22;1984;48.312;9.244;2022-10-31T15:04:03;19.00;99.90
3940;DHT22;1984;48.312;9.244;2022-10-31T15:06:35;19.00;99.90
3940;DHT22;1984;48.312;9.244;2022-10-31T15:09:03;18.90;99.90
3940;DHT22;1984;48.312;9.244;2022-10-31T15:11:37;18.80;99.90
3940;DHT22;1984;48.312;9.244;2022-10-31T15:14:21;18.70;99.90
3940;DHT22;1984;48.312;9.244;2022-10-31T15:16:47;18.60;99.90
3940;DHT22;1984;48.312;9.244;2022-10-31T15:19:20;18.40;99.90
3940;DHT22;1984;48.312;9.244;2022-10-31T15:21:46;18.30;99.90
3940;DHT22;1984;48.312;9.244;2022-10-31T15:24:15;18.20;99.90
3940;DHT22;1984;48.312;9.244;2022-10-31T15:26:46;18.10;99.90
3940;DHT22;1984;48.312;9.244;2022-10-31T15:29:14;18.00;99.90
3940;DHT22;1984;48.312;9.244;2022-10-31T15:31:50;18.00;99.90
3940;DHT22;1984;48.312;9.244;2022-10-31T15:34:21;17.90;99.90
3940;DHT22;1984;48.312;9.244;2022-10-31T15:36:48;17.90;99.90
3940;DHT22;1984;48.312;9.244;2022-10-31T15:39:16;17.80;99.90
3940;DHT22;1984;48.312;9.244;2022-10-31T15:41:57;17.60;99.90
3940;DHT22;1984;48.312;9.244;2022-10-31T15:44:30;17.50;99.90
3940;DHT22;1984;48.312;9.244;2022-10-31T15:47:12;17.40;99.90
3940;DHT22;1984;48.312;9.244;2022-10-31T15:49:41;17.30;99.90
3940;DHT22;1984;48.312;9.244;2022-10-31T15:52:14;17.10;99.90
3940;DHT22;1984;48.312;9.244;2022-10-31T15:54:46;17.00;99.90
3940;DHT22;1984;48.312;9.244;2022-10-31T15:57:13;16.80;99.90
3940;DHT22;1984;48.312;9.244;2022-10-31T15:59:41;16.70;99.90
3940;DHT22;1984;48.312;9.244;2022-10-31T16:02:11;16.60;99.90
3940;DHT22;1984;48.312;9.244;2022-10-31T16:04:36;16.40;99.90
3940;DHT22;1984;48.312;9.244;2022-10-31T16:07:12;16.30;99.90
3940;DHT22;1984;48.312;9.244;2022-10-31T16:09:49;16.10;99.90
3940;DHT22;1984;48.312;9.244;2022-10-31T16:12:15;15.90;99.90
3940;DHT22;1984;48.312;9.244;2022-10-31T16:14:41;15.80;99.90
3940;DHT22;1984;48.312;9.244;2022-10-31T16:17:14;15.70;99.90
3940;DHT22;1984;48.312;9.244;2022-10-31T16:19:59;15.50;99.90
3940;DHT22;1984;48.312;9.244;2022-10-31T16:22:37;15.30;99.90
3940;DHT22;1984;48.312;9.244;2022-10-31T16:25:12;15.10;99.90
3940;DHT22;1984;48.312;9.244;2022-10-31T16:27:39;15.00;99.90
3940;DHT22;1984;48.312;9.244;2022-10-31T16:32:56;14.80;99.90
3940;DHT22;1984;48.312;9.244;2022-10-31T16:35:26;14.70;99.90
3940;DHT22;1984;48.312;9.244;2022-10-31T16:37:52;14.50;99.90
3940;DHT22;1984;48.312;9.244;2022-10-31T16:40:18;14.40;99.90
3940;DHT22;1984;48.312;9.244;2022-10-31T16:42:45;14.20;99.90
3940;DHT22;1984;48.312;9.244;2022-10-31T16:45:23;14.10;99.90
3940;DHT22;1984;48.312;9.244;2022-10-31T16:47:49;14.10;99.90
3940;DHT22;1984;48.312;9.244;2022-10-31T16:50:19;14.00;99.90
3940;DHT22;1984;48.312;9.244;2022-10-31T16:52:45;13.90;99.90
3940;DHT22;1984;48.312;9.244;2022-10-31T16:55:14;13.80;99.90
3940;DHT22;1984;48.312;9.244;2022-10-31T16:57:41;13.80;99.90
3940;DHT22;1984;48.312;9.244;2022-10-31T17:00:13;13.60;99.90
3940;DHT22;1984;48.312;9.244;2022-10-31T17:02:39;13.40;99.90
3940;DHT22;1984;48.312;9.244;2022-10-31T17:05:05;13.40;99.90
3940;DHT22;1984;48.312;9.244;2022-10-31T17:07:31;13.40;99.90
3940;DHT22;1984;48.312;9.244;2022-10-31T17:09:56;13.20;99.90
3940;DHT22;1984;48.312;9.244;2022-10-31T17:12:24;12.90;99.90
3940;DHT22;1984;48.312;9.244;2022-10-31T17:14:51;12.80;99.90
3940;DHT22;1984;48.312;9.244;2022-10-31T17:17:17;12.70;99.90
3940;DHT22;1984;48.312;9.244;2022-10-31T17:19:43;12.60;99.90
3940;DHT22;1984;48.312;9.244;2022-10-31T17:22:13;12.50;99.90
3940;DHT22;1984;48.312;9.244;2022-10-31T17:24:39;12.40;99.90
3940;DHT22;1984;48.312;9.244;2022-10-31T17:27:05;12.50;99.90
3940;DHT22;1984;48.312;9.244;2022-10-31T17:29:31;12.40;99.90
3940;DHT22;1984;48.312;9.244;2022-10-31T17:31:57;12.30;99.90
3940;DHT22;1984;48.312;9.244;2022-10-31T17:34:22;12.30;99.90
3940;DHT22;1984;48.312;9.244;2022-10-31T17:36:51;12.20;99.90
3940;DHT22;1984;48.312;9.244;2022-10-31T17:39:18;12.20;99.90
3940;DHT22;1984;48.312;9.244;2022-10-31T17:41:44;12.20;99.90
3940;DHT22;1984;48.312;9.244;2022-10-31T17:44:10;12.00;99.90
3940;DHT22;1984;48.312;9.244;2022-10-31T17:46:36;11.90;99.90
3940;DHT22;1984;48.312;9.244;2022-10-31T17:49:03;11.90;99.90
3940;DHT22;1984;48.312;9.244;2022-10-31T17:51:29;11.90;99.90
3940;DHT22;1984;48.312;9.244;2022-10-31T17:53:57;11.70;99.90
3940;DHT22;1984;48.312;9.244;2022-10-31T17:56:22;11.60;99.90
3940;DHT22;1984;48.312;9.244;2022-10-31T17:58:48;11.60;99.90
3940;DHT22;1984;48.312;9.244;2022-10-31T18:01:16;11.50;99.90
3940;DHT22;1984;48.312;9.244;2022-10-31T18:03:41;11.50;99.90
3940;DHT22;1984;48.312;9.244;2022-10-31T18:06:08;11.50;99.90
3940;DHT22;1984;48.312;9.244;2022-10-31T18:08:35;11.50;99.90
3940;DHT22;1984;48.312;9.244;2022-10-31T18:11:09;11.60;99.90
3940;DHT22;1984;48.312;9.244;2022-10-31T18:13:36;11.50;99.90
3940;DHT22;1984;48.312;9.244;2022-10-31T18:16:24;11.50;99.90
3940;DHT22;1984;48.312;9.244;2022-10-31T18:18:53;11.50;99.90
3940;DHT22;1984;48.312;9.244;2022-10-31T18:21:19;11.50;99.90
3940;DHT22;1984;48.312;9.244;2022-10-31T18:23:45;11.40;99.90
3940;DHT22;1984;48.312;9.244;2022-10-31T18:26:10;11.30;99.90
3940;DHT22;1984;48.312;9.244;2022-10-31T18:28:36;11.30;99.90
3940;DHT22;1984;48.312;9.244;2022-10-31T18:31:02;11.30;99.90
3940;DHT22;1984;48.312;9.244;2022-10-31T18:33:28;11.30;99.90
3940;DHT22;1984;48.312;9.244;2022-10-31T18:35:54;11.20;99.90
3940;DHT22;1984;48.312;9.244;2022-10-31T18:38:20;11.20;99.90
3940;DHT22;1984;48.312;9.244;2022-10-31T18:40:46;11.10;99.90
3940;DHT22;1984;48.312;9.244;2022-10-31T18:43:11;11.20;99.90
3940;DHT22;1984;48.312;9.244;2022-10-31T18:45:37;11.10;99.90
3940;DHT22;1984;48.312;9.244;2022-10-31T18:48:03;11.00;99.90